sensor_id;sensor_type;location;lat;lon;timestamp;P1;P2;P0
51320;PMS5003;38732;49.556;6.286;2022-07-10T00:01:58;6.00;6.00;4.20
51320;PMS5003;38732;49.556;6.286;2022-07-10T00:04:24;6.80;6.80;5.00
51320;PMS5003;38732;49.556;6.286;2022-07-10T00:06:51;5.00;5.00;3.00
51320;PMS5003;38732;49.556;6.286;2022-07-10T00:09:18;7.60;6.40;4.00
51320;PMS5003;38732;49.556;6.286;2022-07-10T00:11:44;5.40;5.00;4.00
51320;PMS5003;38732;49.556;6.286;2022-07-10T00:14:11;5.80;5.80;4.60
51320;PMS5003;38732;49.556;6.286;2022-07-10T00:16:38;8.00;4.40;3.00
51320;PMS5003;38732;49.556;6.286;2022-07-10T00:19:04;5.40;5.20;4.00
51320;PMS5003;38732;49.556;6.286;2022-07-10T00:21:31;6.20;5.00;4.00
51320;PMS5003;38732;49.556;6.286;2022-07-10T00:23:58;1.60;1.40;0.00
51320;PMS5003;38732;49.556;6.286;2022-07-10T00:26:24;6.80;6.40;4.20
51320;PMS5003;38732;49.556;6.286;2022-07-10T00:28:51;5.00;5.00;3.00
51320;PMS5003;38732;49.556;6.286;2022-07-10T00:31:17;9.00;6.40;4.00
51320;PMS5003;38732;49.556;6.286;2022-07-10T00:33:44;7.20;7.20;4.80
51320;PMS5003;38732;49.556;6.286;2022-07-10T00:36:11;7.00;6.00;4.80
51320;PMS5003;38732;49.556;6.286;2022-07-10T00:38:38;2.60;2.00;1.20
51320;PMS5003;38732;49.556;6.286;2022-07-10T00:41:05;7.00;6.60;5.00
51320;PMS5003;38732;49.556;6.286;2022-07-10T00:46:17;7.80;7.80;4.20
51320;PMS5003;38732;49.556;6.286;2022-07-10T00:48:47;8.00;6.00;4.00
51320;PMS5003;38732;49.556;6.286;2022-07-10T00:51:15;6.00;6.00;5.00
51320;PMS5003;38732;49.556;6.286;2022-07-10T00:53:44;6.00;6.00;5.00
51320;PMS5003;38732;49.556;6.286;2022-07-10T00:56:14;7.20;5.60;4.00
51320;PMS5003;38732;49.556;6.286;2022-07-10T00:58:43;4.20;4.20;3.40
51320;PMS5003;38732;49.556;6.286;2022-07-10T01:01:11;7.80;6.80;4.60
51320;PMS5003;38732;49.556;6.286;2022-07-10T01:03:38;6.40;4.80;3.00
51320;PMS5003;38732;49.556;6.286;2022-07-10T01:06:05;6.40;6.20;5.00
51320;PMS5003;38732;49.556;6.286;2022-07-10T01:08:32;8.40;6.20;5.00
51320;PMS5003;38732;49.556;6.286;2022-07-10T01:10:59;7.00;7.00;5.20
51320;PMS5003;38732;49.556;6.286;2022-07-10T01:13:26;4.00;4.00;3.20
51320;PMS5003;38732;49.556;6.286;2022-07-10T01:15:54;4.80;4.80;3.60
51320;PMS5003;38732;49.556;6.286;2022-07-10T01:18:21;7.60;6.00;4.60
51320;PMS5003;38732;49.556;6.286;2022-07-10T01:20:55;5.80;5.80;5.00
51320;PMS5003;38732;49.556;6.286;2022-07-10T01:23:22;8.80;6.80;5.00
51320;PMS5003;38732;49.556;6.286;2022-07-10T01:25:50;6.00;6.00;4.00
51320;PMS5003;38732;49.556;6.286;2022-07-10T01:28:17;4.20;4.00;3.40
51320;PMS5003;38732;49.556;6.286;2022-07-10T01:30:44;4.40;4.40;3.00
51320;PMS5003;38732;49.556;6.286;2022-07-10T01:33:11;6.60;5.40;3.80
51320;PMS5003;38732;49.556;6.286;2022-07-10T01:35:37;5.80;5.80;4.00
51320;PMS5003;38732;49.556;6.286;2022-07-10T01:38:05;6.00;6.00;4.00
51320;PMS5003;38732;49.556;6.286;2022-07-10T01:40:33;6.00;6.00;4.20
51320;PMS5003;38732;49.556;6.286;2022-07-10T01:43:00;7.60;6.20;4.40
51320;PMS5003;38732;49.556;6.286;2022-07-10T01:45:26;6.00;6.00;5.00
51320;PMS5003;38732;49.556;6.286;2022-07-10T01:47:53;7.00;6.20;3.40
51320;PMS5003;38732;49.556;6.286;2022-07-10T01:50:20;4.60;4.60;1.00
51320;PMS5003;38732;49.556;6.286;2022-07-10T01:52:46;6.00;6.00;4.80
51320;PMS5003;38732;49.556;6.286;2022-07-10T01:55:13;5.40;4.20;3.00
51320;PMS5003;38732;49.556;6.286;2022-07-10T01:57:40;7.20;7.20;4.40
51320;PMS5003;38732;49.556;6.286;2022-07-10T02:00:07;3.20;3.20;2.80
51320;PMS5003;38732;49.556;6.286;2022-07-10T02:02:37;5.60;5.60;4.00
51320;PMS5003;38732;49.556;6.286;2022-07-10T02:05:04;5.20;5.20;3.60
51320;PMS5003;38732;49.556;6.286;2022-07-10T02:07:31;7.20;5.20;4.00
51320;PMS5003;38732;49.556;6.286;2022-07-10T02:09:58;4.20;4.20;3.80
51320;PMS5003;38732;49.556;6.286;2022-07-10T02:12:24;5.00;5.00;3.40
51320;PMS5003;38732;49.556;6.286;2022-07-10T02:14:51;4.60;4.60;2.60
51320;PMS5003;38732;49.556;6.286;2022-07-10T02:17:18;7.40;6.00;4.00
51320;PMS5003;38732;49.556;6.286;2022-07-10T02:19:44;5.60;5.60;5.00
51320;PMS5003;38732;49.556;6.286;2022-07-10T02:22:11;6.40;4.60;3.20
51320;PMS5003;38732;49.556;6.286;2022-07-10T02:24:38;6.00;5.00;3.20
51320;PMS5003;38732;49.556;6.286;2022-07-10T02:27:05;6.80;5.00;3.00
51320;PMS5003;38732;49.556;6.286;2022-07-10T02:29:31;7.20;7.20;4.00
51320;PMS5003;38732;49.556;6.286;2022-07-10T02:31:58;6.00;4.40;3.60
51320;PMS5003;38732;49.556;6.286;2022-07-10T02:34:25;5.40;5.40;3.00
51320;PMS5003;38732;49.556;6.286;2022-07-10T02:36:52;6.20;6.20;4.00
51320;PMS5003;38732;49.556;6.286;2022-07-10T02:39:18;6.20;6.20;4.60
51320;PMS5003;38732;49.556;6.286;2022-07-10T02:41:45;4.20;3.00;1.60
51320;PMS5003;38732;49.556;6.286;2022-07-10T02:44:12;5.00;5.00;3.80
51320;PMS5003;38732;49.556;6.286;2022-07-10T02:46:38;4.60;4.60;4.00
51320;PMS5003;38732;49.556;6.286;2022-07-10T02:49:05;4.60;3.60;3.00
51320;PMS5003;38732;49.556;6.286;2022-07-10T02:51:32;4.20;4.20;3.00
51320;PMS5003;38732;49.556;6.286;2022-07-10T02:53:58;5.40;5.00;3.60
51320;PMS5003;38732;49.556;6.286;2022-07-10T02:56:25;4.80;4.00;2.60
51320;PMS5003;38732;49.556;6.286;2022-07-10T02:58:52;8.00;7.20;4.00
51320;PMS5003;38732;49.556;6.286;2022-07-10T03:01:18;4.20;4.20;3.00
51320;PMS5003;38732;49.556;6.286;2022-07-10T03:03:45;4.00;4.00;2.60
51320;PMS5003;38732;49.556;6.286;2022-07-10T03:06:12;4.00;4.00;3.00
51320;PMS5003;38732;49.556;6.286;2022-07-10T03:08:38;5.40;5.40;3.40
51320;PMS5003;38732;49.556;6.286;2022-07-10T03:11:06;7.00;4.80;2.60
51320;PMS5003;38732;49.556;6.286;2022-07-10T03:13:33;6.80;5.00;3.40
51320;PMS5003;38732;49.556;6.286;2022-07-10T03:15:59;4.00;4.00;2.20
51320;PMS5003;38732;49.556;6.286;2022-07-10T03:18:26;8.40;6.60;3.80
51320;PMS5003;38732;49.556;6.286;2022-07-10T03:20:53;7.40;7.40;4.00
51320;PMS5003;38732;49.556;6.286;2022-07-10T03:23:19;6.20;5.00;3.80
51320;PMS5003;38732;49.556;6.286;2022-07-10T03:25:46;3.40;3.40;2.00
51320;PMS5003;38732;49.556;6.286;2022-07-10T03:28:13;3.60;2.40;1.40
51320;PMS5003;38732;49.556;6.286;2022-07-10T03:30:40;8.00;6.20;3.20
51320;PMS5003;38732;49.556;6.286;2022-07-10T03:33:07;4.60;4.60;3.00
51320;PMS5003;38732;49.556;6.286;2022-07-10T03:35:34;7.20;5.80;3.40
51320;PMS5003;38732;49.556;6.286;2022-07-10T03:38:01;3.40;3.40;2.00
51320;PMS5003;38732;49.556;6.286;2022-07-10T03:40:28;6.20;6.20;3.20
51320;PMS5003;38732;49.556;6.286;2022-07-10T03:42:55;5.20;5.20;3.00
51320;PMS5003;38732;49.556;6.286;2022-07-10T03:45:22;4.60;4.60;3.40
51320;PMS5003;38732;49.556;6.286;2022-07-10T03:47:49;6.20;4.00;2.80
51320;PMS5003;38732;49.556;6.286;2022-07-10T03:50:16;7.80;7.80;3.00
51320;PMS5003;38732;49.556;6.286;2022-07-10T03:52:42;6.40;6.40;3.20
51320;PMS5003;38732;49.556;6.286;2022-07-10T03:55:10;7.40;7.40;4.00
51320;PMS5003;38732;49.556;6.286;2022-07-10T03:57:37;3.00;3.00;2.00
51320;PMS5003;38732;49.556;6.286;2022-07-10T04:00:23;4.20;4.20;3.60
51320;PMS5003;38732;49.556;6.286;2022-07-10T04:02:57;5.80;5.80;2.80
51320;PMS5003;38732;49.556;6.286;2022-07-10T04:05:25;4.00;4.00;3.00
51320;PMS5003;38732;49.556;6.286;2022-07-10T04:07:53;8.20;4.80;3.00
51320;PMS5003;38732;49.556;6.286;2022-07-10T04:10:20;7.00;6.00;3.00
51320;PMS5003;38732;49.556;6.286;2022-07-10T04:12:47;3.60;3.60;2.40
51320;PMS5003;38732;49.556;6.286;2022-07-10T04:15:14;7.00;5.20;3.20
51320;PMS5003;38732;49.556;6.286;2022-07-10T04:17:41;3.60;3.00;2.00
51320;PMS5003;38732;49.556;6.286;2022-07-10T04:20:09;5.60;4.00;2.40
51320;PMS5003;38732;49.556;6.286;2022-07-10T04:22:36;4.20;4.20;3.40
51320;PMS5003;38732;49.556;6.286;2022-07-10T04:25:03;4.80;3.40;3.00
51320;PMS5003;38732;49.556;6.286;2022-07-10T04:27:30;4.60;4.00;2.00
51320;PMS5003;38732;49.556;6.286;2022-07-10T04:29:57;4.40;4.40;2.60
51320;PMS5003;38732;49.556;6.286;2022-07-10T04:32:24;6.20;6.20;3.40
51320;PMS5003;38732;49.556;6.286;2022-07-10T04:34:51;5.00;3.00;1.40
51320;PMS5003;38732;49.556;6.286;2022-07-10T04:37:18;3.80;3.80;3.00
51320;PMS5003;38732;49.556;6.286;2022-07-10T04:39:44;4.60;4.20;3.00
51320;PMS5003;38732;49.556;6.286;2022-07-10T04:42:11;6.60;4.00;2.20
51320;PMS5003;38732;49.556;6.286;2022-07-10T04:44:38;6.20;4.40;2.80
51320;PMS5003;38732;49.556;6.286;2022-07-10T04:47:05;5.80;5.80;4.00
51320;PMS5003;38732;49.556;6.286;2022-07-10T04:49:32;8.80;5.00;3.40
51320;PMS5003;38732;49.556;6.286;2022-07-10T04:51:59;3.80;3.80;3.00
51320;PMS5003;38732;49.556;6.286;2022-07-10T04:54:26;8.00;4.20;3.00
51320;PMS5003;38732;49.556;6.286;2022-07-10T04:56:53;5.20;5.20;2.20
51320;PMS5003;38732;49.556;6.286;2022-07-10T04:59:20;5.00;4.60;3.00
51320;PMS5003;38732;49.556;6.286;2022-07-10T05:01:46;3.40;3.40;2.00
51320;PMS5003;38732;49.556;6.286;2022-07-10T05:04:13;2.00;2.00;2.00
51320;PMS5003;38732;49.556;6.286;2022-07-10T05:06:39;4.00;4.00;2.00
51320;PMS5003;38732;49.556;6.286;2022-07-10T05:09:06;4.00;4.00;2.40
51320;PMS5003;38732;49.556;6.286;2022-07-10T05:11:33;3.60;3.60;2.00
51320;PMS5003;38732;49.556;6.286;2022-07-10T05:13:59;6.20;4.40;3.00
51320;PMS5003;38732;49.556;6.286;2022-07-10T05:16:26;4.00;4.00;2.00
51320;PMS5003;38732;49.556;6.286;2022-07-10T05:18:53;8.20;6.00;2.20
51320;PMS5003;38732;49.556;6.286;2022-07-10T05:21:19;4.00;3.80;2.00
51320;PMS5003;38732;49.556;6.286;2022-07-10T05:23:46;4.00;4.00;2.00
51320;PMS5003;38732;49.556;6.286;2022-07-10T05:26:12;3.60;3.60;2.00
51320;PMS5003;38732;49.556;6.286;2022-07-10T05:28:39;3.40;3.00;2.00
51320;PMS5003;38732;49.556;6.286;2022-07-10T05:31:06;3.40;3.40;2.40
51320;PMS5003;38732;49.556;6.286;2022-07-10T05:33:33;3.00;3.00;2.20
51320;PMS5003;38732;49.556;6.286;2022-07-10T05:36:00;3.40;3.00;2.00
51320;PMS5003;38732;49.556;6.286;2022-07-10T05:38:27;3.60;2.40;1.40
51320;PMS5003;38732;49.556;6.286;2022-07-10T05:40:53;5.80;4.40;2.80
51320;PMS5003;38732;49.556;6.286;2022-07-10T05:43:21;4.00;4.00;2.60
51320;PMS5003;38732;49.556;6.286;2022-07-10T05:45:48;0.60;0.00;0.00
51320;PMS5003;38732;49.556;6.286;2022-07-10T05:48:19;3.00;3.00;2.20
51320;PMS5003;38732;49.556;6.286;2022-07-10T05:50:46;3.80;3.80;2.00
51320;PMS5003;38732;49.556;6.286;2022-07-10T05:53:12;3.00;3.00;2.00
51320;PMS5003;38732;49.556;6.286;2022-07-10T05:55:39;2.80;2.80;2.00
51320;PMS5003;38732;49.556;6.286;2022-07-10T05:58:06;4.60;3.40;2.80
51320;PMS5003;38732;49.556;6.286;2022-07-10T06:00:32;2.00;2.00;1.00
51320;PMS5003;38732;49.556;6.286;2022-07-10T06:02:59;3.60;2.80;1.60
51320;PMS5003;38732;49.556;6.286;2022-07-10T06:05:25;3.00;3.00;2.00
51320;PMS5003;38732;49.556;6.286;2022-07-10T06:07:52;2.00;2.00;1.00
51320;PMS5003;38732;49.556;6.286;2022-07-10T06:10:19;3.00;3.00;2.00
51320;PMS5003;38732;49.556;6.286;2022-07-10T06:12:45;2.00;2.00;2.00
51320;PMS5003;38732;49.556;6.286;2022-07-10T06:15:12;4.00;2.80;2.00
51320;PMS5003;38732;49.556;6.286;2022-07-10T06:17:44;2.00;2.00;1.00
51320;PMS5003;38732;49.556;6.286;2022-07-10T06:20:11;1.40;1.40;1.00
51320;PMS5003;38732;49.556;6.286;2022-07-10T06:22:39;3.00;3.00;1.00
51320;PMS5003;38732;49.556;6.286;2022-07-10T06:25:06;2.80;2.20;2.00
51320;PMS5003;38732;49.556;6.286;2022-07-10T06:27:34;2.60;2.00;1.00
51320;PMS5003;38732;49.556;6.286;2022-07-10T06:30:01;3.00;3.00;2.00
51320;PMS5003;38732;49.556;6.286;2022-07-10T06:32:29;3.00;2.80;1.60
51320;PMS5003;38732;49.556;6.286;2022-07-10T06:34:56;2.00;2.00;1.00
51320;PMS5003;38732;49.556;6.286;2022-07-10T06:37:23;3.00;2.00;2.00
51320;PMS5003;38732;49.556;6.286;2022-07-10T06:39:50;3.00;2.00;1.60
51320;PMS5003;38732;49.556;6.286;2022-07-10T06:42:17;1.00;1.00;1.00
51320;PMS5003;38732;49.556;6.286;2022-07-10T06:44:47;4.00;4.00;2.00
51320;PMS5003;38732;49.556;6.286;2022-07-10T06:47:15;2.00;2.00;1.00
51320;PMS5003;38732;49.556;6.286;2022-07-10T06:50:07;2.00;2.00;1.40
51320;PMS5003;38732;49.556;6.286;2022-07-10T06:52:35;3.20;2.00;1.20
51320;PMS5003;38732;49.556;6.286;2022-07-10T06:55:02;1.00;1.00;0.00
51320;PMS5003;38732;49.556;6.286;2022-07-10T06:57:30;4.00;3.00;1.40
51320;PMS5003;38732;49.556;6.286;2022-07-10T06:59:57;2.20;2.20;1.60
51320;PMS5003;38732;49.556;6.286;2022-07-10T07:02:24;1.80;1.00;0.60
51320;PMS5003;38732;49.556;6.286;2022-07-10T07:04:51;2.00;2.00;1.00
51320;PMS5003;38732;49.556;6.286;2022-07-10T07:07:18;2.20;2.20;1.00
51320;PMS5003;38732;49.556;6.286;2022-07-10T07:09:51;4.40;2.60;1.00
51320;PMS5003;38732;49.556;6.286;2022-07-10T07:12:18;4.00;2.00;0.00
51320;PMS5003;38732;49.556;6.286;2022-07-10T07:14:46;3.20;2.00;1.00
51320;PMS5003;38732;49.556;6.286;2022-07-10T07:17:13;3.00;1.00;1.00
51320;PMS5003;38732;49.556;6.286;2022-07-10T07:19:51;1.20;1.20;1.00
51320;PMS5003;38732;49.556;6.286;2022-07-10T07:22:37;4.20;0.60;0.60
51320;PMS5003;38732;49.556;6.286;2022-07-10T07:25:22;1.60;1.60;1.00
51320;PMS5003;38732;49.556;6.286;2022-07-10T07:27:49;1.00;1.00;1.00
51320;PMS5003;38732;49.556;6.286;2022-07-10T07:30:15;1.60;1.60;0.60
51320;PMS5003;38732;49.556;6.286;2022-07-10T07:32:43;2.60;2.00;1.00
51320;PMS5003;38732;49.556;6.286;2022-07-10T07:35:11;3.00;2.00;1.00
51320;PMS5003;38732;49.556;6.286;2022-07-10T07:37:39;3.60;2.00;1.00
51320;PMS5003;38732;49.556;6.286;2022-07-10T07:40:09;2.40;1.40;1.00
51320;PMS5003;38732;49.556;6.286;2022-07-10T07:42:38;2.80;2.00;1.00
51320;PMS5003;38732;49.556;6.286;2022-07-10T07:45:05;1.00;1.00;0.80
51320;PMS5003;38732;49.556;6.286;2022-07-10T07:47:45;1.60;1.60;1.00
51320;PMS5003;38732;49.556;6.286;2022-07-10T07:50:22;2.20;1.40;1.00
51320;PMS5003;38732;49.556;6.286;2022-07-10T07:52:54;1.00;1.00;0.00
51320;PMS5003;38732;49.556;6.286;2022-07-10T07:55:22;1.40;1.40;1.00
51320;PMS5003;38732;49.556;6.286;2022-07-10T07:57:51;2.00;1.00;1.00
51320;PMS5003;38732;49.556;6.286;2022-07-10T08:00:20;2.00;2.00;1.00
51320;PMS5003;38732;49.556;6.286;2022-07-10T08:02:52;3.00;3.00;2.00
51320;PMS5003;38732;49.556;6.286;2022-07-10T08:05:20;3.00;3.00;2.00
51320;PMS5003;38732;49.556;6.286;2022-07-10T08:07:48;1.80;1.80;1.00
51320;PMS5003;38732;49.556;6.286;2022-07-10T08:10:17;1.60;1.60;1.00
51320;PMS5003;38732;49.556;6.286;2022-07-10T08:12:46;3.80;3.00;1.00
51320;PMS5003;38732;49.556;6.286;2022-07-10T08:15:18;1.80;1.80;0.80
51320;PMS5003;38732;49.556;6.286;2022-07-10T08:17:48;3.00;3.00;2.00
51320;PMS5003;38732;49.556;6.286;2022-07-10T08:20:16;2.20;1.20;1.00
51320;PMS5003;38732;49.556;6.286;2022-07-10T08:22:43;3.00;2.00;1.00
51320;PMS5003;38732;49.556;6.286;2022-07-10T08:25:12;3.00;2.00;1.00
51320;PMS5003;38732;49.556;6.286;2022-07-10T08:27:39;3.20;2.20;0.80
51320;PMS5003;38732;49.556;6.286;2022-07-10T08:30:06;1.20;1.20;1.00
51320;PMS5003;38732;49.556;6.286;2022-07-10T08:32:35;2.40;2.00;1.80
51320;PMS5003;38732;49.556;6.286;2022-07-10T08:35:03;3.00;3.00;2.40
51320;PMS5003;38732;49.556;6.286;2022-07-10T08:37:40;1.40;1.40;1.00
51320;PMS5003;38732;49.556;6.286;2022-07-10T08:40:09;1.20;1.20;1.00
51320;PMS5003;38732;49.556;6.286;2022-07-10T08:42:37;2.60;2.20;1.00
51320;PMS5003;38732;49.556;6.286;2022-07-10T08:45:05;1.60;1.60;1.00
51320;PMS5003;38732;49.556;6.286;2022-07-10T08:47:36;2.00;2.00;1.00
51320;PMS5003;38732;49.556;6.286;2022-07-10T08:50:07;3.60;2.20;1.40
51320;PMS5003;38732;49.556;6.286;2022-07-10T08:52:58;3.40;2.00;1.00
51320;PMS5003;38732;49.556;6.286;2022-07-10T08:55:26;2.40;2.40;1.80
51320;PMS5003;38732;49.556;6.286;2022-07-10T08:57:54;1.00;1.00;0.00
51320;PMS5003;38732;49.556;6.286;2022-07-10T09:00:23;2.60;2.60;2.00
51320;PMS5003;38732;49.556;6.286;2022-07-10T09:02:50;2.40;2.40;1.00
51320;PMS5003;38732;49.556;6.286;2022-07-10T09:05:19;3.00;1.40;1.00
51320;PMS5003;38732;49.556;6.286;2022-07-10T09:07:45;2.40;2.40;1.80
51320;PMS5003;38732;49.556;6.286;2022-07-10T09:10:13;3.20;2.20;1.00
51320;PMS5003;38732;49.556;6.286;2022-07-10T09:12:50;2.80;1.60;1.00
51320;PMS5003;38732;49.556;6.286;2022-07-10T09:15:22;3.60;2.40;1.40
51320;PMS5003;38732;49.556;6.286;2022-07-10T09:17:54;2.00;2.00;1.80
51320;PMS5003;38732;49.556;6.286;2022-07-10T09:22:59;3.00;2.00;1.60
51320;PMS5003;38732;49.556;6.286;2022-07-10T09:25:36;2.60;2.60;2.00
51320;PMS5003;38732;49.556;6.286;2022-07-10T09:28:03;3.00;3.00;2.00
51320;PMS5003;38732;49.556;6.286;2022-07-10T09:30:36;1.00;1.00;1.00
51320;PMS5003;38732;49.556;6.286;2022-07-10T09:33:27;2.00;2.00;1.00
51320;PMS5003;38732;49.556;6.286;2022-07-10T09:43:45;2.60;2.00;1.00
51320;PMS5003;38732;49.556;6.286;2022-07-10T09:46:20;1.60;1.40;1.00
51320;PMS5003;38732;49.556;6.286;2022-07-10T09:48:49;2.20;2.20;1.40
51320;PMS5003;38732;49.556;6.286;2022-07-10T09:51:41;2.80;1.60;1.00
51320;PMS5003;38732;49.556;6.286;2022-07-10T09:54:15;2.00;2.00;1.00
51320;PMS5003;38732;49.556;6.286;2022-07-10T09:56:46;4.20;2.00;1.00
51320;PMS5003;38732;49.556;6.286;2022-07-10T09:59:15;1.00;1.00;1.00
51320;PMS5003;38732;49.556;6.286;2022-07-10T10:01:50;3.00;1.60;1.00
51320;PMS5003;38732;49.556;6.286;2022-07-10T10:04:19;1.00;1.00;0.60
51320;PMS5003;38732;49.556;6.286;2022-07-10T10:06:51;2.60;2.00;0.80
51320;PMS5003;38732;49.556;6.286;2022-07-10T10:09:22;2.40;1.60;1.00
51320;PMS5003;38732;49.556;6.286;2022-07-10T10:11:59;1.00;1.00;0.20
51320;PMS5003;38732;49.556;6.286;2022-07-10T10:14:29;1.60;1.60;0.80
51320;PMS5003;38732;49.556;6.286;2022-07-10T10:16:57;1.60;1.60;1.00
51320;PMS5003;38732;49.556;6.286;2022-07-10T10:19:26;1.40;1.40;0.40
51320;PMS5003;38732;49.556;6.286;2022-07-10T10:22:17;0.80;0.80;0.20
51320;PMS5003;38732;49.556;6.286;2022-07-10T10:24:48;1.20;1.20;0.80
51320;PMS5003;38732;49.556;6.286;2022-07-10T10:27:16;2.80;1.20;0.40
51320;PMS5003;38732;49.556;6.286;2022-07-10T10:29:45;2.80;1.60;1.60
51320;PMS5003;38732;49.556;6.286;2022-07-10T10:32:14;2.00;1.20;0.60
51320;PMS5003;38732;49.556;6.286;2022-07-10T10:34:42;2.40;2.40;1.20
51320;PMS5003;38732;49.556;6.286;2022-07-10T10:39:54;2.00;1.00;1.00
51320;PMS5003;38732;49.556;6.286;2022-07-10T10:48:01;1.60;1.60;0.80
51320;PMS5003;38732;49.556;6.286;2022-07-10T10:50:51;2.20;2.20;1.60
51320;PMS5003;38732;49.556;6.286;2022-07-10T10:53:23;1.60;1.60;1.40
51320;PMS5003;38732;49.556;6.286;2022-07-10T10:56:38;2.40;2.40;1.00
51320;PMS5003;38732;49.556;6.286;2022-07-10T10:58:40;1.00;1.00;1.00
51320;PMS5003;38732;49.556;6.286;2022-07-10T11:06:42;1.60;1.60;0.80
51320;PMS5003;38732;49.556;6.286;2022-07-10T11:09:28;1.40;0.80;0.80
51320;PMS5003;38732;49.556;6.286;2022-07-10T11:14:32;1.80;1.80;1.00
51320;PMS5003;38732;49.556;6.286;2022-07-10T11:17:01;1.60;1.60;1.00
51320;PMS5003;38732;49.556;6.286;2022-07-10T11:19:28;1.80;1.80;0.80
51320;PMS5003;38732;49.556;6.286;2022-07-10T11:28:04;0.80;0.80;0.80
51320;PMS5003;38732;49.556;6.286;2022-07-10T11:30:45;3.80;3.00;1.60
51320;PMS5003;38732;49.556;6.286;2022-07-10T11:33:20;2.20;2.20;1.20
51320;PMS5003;38732;49.556;6.286;2022-07-10T11:35:51;2.40;2.40;1.80
51320;PMS5003;38732;49.556;6.286;2022-07-10T11:38:22;2.80;2.60;1.80
51320;PMS5003;38732;49.556;6.286;2022-07-10T11:43:26;0.40;0.40;0.00
51320;PMS5003;38732;49.556;6.286;2022-07-10T11:45:53;1.20;1.20;0.80
51320;PMS5003;38732;49.556;6.286;2022-07-10T11:48:25;3.40;2.80;1.60
51320;PMS5003;38732;49.556;6.286;2022-07-10T11:50:52;3.00;2.40;1.40
51320;PMS5003;38732;49.556;6.286;2022-07-10T11:53:22;3.20;2.40;1.80
51320;PMS5003;38732;49.556;6.286;2022-07-10T11:55:50;1.80;1.40;1.00
51320;PMS5003;38732;49.556;6.286;2022-07-10T11:58:19;1.80;1.80;1.00
51320;PMS5003;38732;49.556;6.286;2022-07-10T12:00:56;2.60;2.00;1.60
51320;PMS5003;38732;49.556;6.286;2022-07-10T12:03:28;4.60;2.60;1.80
51320;PMS5003;38732;49.556;6.286;2022-07-10T12:05:55;2.00;2.00;1.20
51320;PMS5003;38732;49.556;6.286;2022-07-10T12:08:28;2.80;2.80;2.00
51320;PMS5003;38732;49.556;6.286;2022-07-10T12:10:55;4.00;4.00;2.00
51320;PMS5003;38732;49.556;6.286;2022-07-10T12:13:22;2.20;2.20;1.80
51320;PMS5003;38732;49.556;6.286;2022-07-10T12:15:48;3.40;3.40;2.40
51320;PMS5003;38732;49.556;6.286;2022-07-10T12:20:44;1.80;1.80;1.00
51320;PMS5003;38732;49.556;6.286;2022-07-10T12:23:17;2.80;2.40;2.00
51320;PMS5003;38732;49.556;6.286;2022-07-10T12:25:45;2.40;2.40;1.80
51320;PMS5003;38732;49.556;6.286;2022-07-10T12:28:17;2.00;2.00;1.00
51320;PMS5003;38732;49.556;6.286;2022-07-10T12:30:48;3.80;3.80;3.00
51320;PMS5003;38732;49.556;6.286;2022-07-10T12:33:16;4.00;4.00;2.00
51320;PMS5003;38732;49.556;6.286;2022-07-10T12:38:25;3.60;3.60;2.00
51320;PMS5003;38732;49.556;6.286;2022-07-10T12:41:11;2.00;2.00;1.20
51320;PMS5003;38732;49.556;6.286;2022-07-10T12:43:40;3.60;3.60;2.20
51320;PMS5003;38732;49.556;6.286;2022-07-10T12:48:38;3.00;3.00;2.00
51320;PMS5003;38732;49.556;6.286;2022-07-10T12:51:23;3.00;3.00;2.00
51320;PMS5003;38732;49.556;6.286;2022-07-10T12:53:52;2.80;2.80;2.00
51320;PMS5003;38732;49.556;6.286;2022-07-10T12:56:25;2.80;1.60;0.20
51320;PMS5003;38732;49.556;6.286;2022-07-10T12:59:00;3.80;3.20;2.00
51320;PMS5003;38732;49.556;6.286;2022-07-10T13:01:40;2.20;2.20;1.40
51320;PMS5003;38732;49.556;6.286;2022-07-10T13:04:10;2.40;2.40;1.40
51320;PMS5003;38732;49.556;6.286;2022-07-10T13:06:38;3.40;3.40;2.20
51320;PMS5003;38732;49.556;6.286;2022-07-10T13:11:45;3.20;2.00;1.00
51320;PMS5003;38732;49.556;6.286;2022-07-10T13:14:12;3.60;2.40;1.60
51320;PMS5003;38732;49.556;6.286;2022-07-10T13:16:39;4.00;4.00;2.00
51320;PMS5003;38732;49.556;6.286;2022-07-10T13:19:06;1.80;1.80;0.80
51320;PMS5003;38732;49.556;6.286;2022-07-10T13:21:33;2.60;2.60;1.00
51320;PMS5003;38732;49.556;6.286;2022-07-10T13:23:59;1.80;1.80;0.00
51320;PMS5003;38732;49.556;6.286;2022-07-10T13:26:27;2.00;2.00;0.80
51320;PMS5003;38732;49.556;6.286;2022-07-10T13:28:56;4.00;4.00;3.00
51320;PMS5003;38732;49.556;6.286;2022-07-10T13:31:23;1.80;1.80;1.00
51320;PMS5003;38732;49.556;6.286;2022-07-10T13:33:50;2.60;2.60;2.00
51320;PMS5003;38732;49.556;6.286;2022-07-10T13:36:16;1.00;1.00;1.00
51320;PMS5003;38732;49.556;6.286;2022-07-10T13:38:44;2.60;2.60;1.80
51320;PMS5003;38732;49.556;6.286;2022-07-10T13:41:11;1.80;1.80;1.00
51320;PMS5003;38732;49.556;6.286;2022-07-10T13:43:37;2.60;2.60;1.80
51320;PMS5003;38732;49.556;6.286;2022-07-10T13:46:04;1.40;1.40;0.80
51320;PMS5003;38732;49.556;6.286;2022-07-10T13:48:31;2.80;0.80;0.80
51320;PMS5003;38732;49.556;6.286;2022-07-10T13:50:58;3.00;3.00;1.00
51320;PMS5003;38732;49.556;6.286;2022-07-10T13:53:24;2.00;2.00;1.60
51320;PMS5003;38732;49.556;6.286;2022-07-10T13:55:51;3.00;2.00;1.00
51320;PMS5003;38732;49.556;6.286;2022-07-10T13:58:18;3.00;1.20;0.80
51320;PMS5003;38732;49.556;6.286;2022-07-10T14:00:46;2.00;2.00;1.00
51320;PMS5003;38732;49.556;6.286;2022-07-10T14:03:12;0.80;0.80;0.80
51320;PMS5003;38732;49.556;6.286;2022-07-10T14:05:39;1.00;1.00;1.00
51320;PMS5003;38732;49.556;6.286;2022-07-10T14:08:06;2.20;2.20;1.20
51320;PMS5003;38732;49.556;6.286;2022-07-10T14:10:33;1.00;1.00;1.00
51320;PMS5003;38732;49.556;6.286;2022-07-10T14:12:59;1.20;1.20;0.80
51320;PMS5003;38732;49.556;6.286;2022-07-10T14:15:26;1.80;1.80;1.00
51320;PMS5003;38732;49.556;6.286;2022-07-10T14:17:53;2.00;2.00;1.00
51320;PMS5003;38732;49.556;6.286;2022-07-10T14:20:21;1.20;1.20;0.80
51320;PMS5003;38732;49.556;6.286;2022-07-10T14:22:48;2.60;2.60;1.80
51320;PMS5003;38732;49.556;6.286;2022-07-10T14:25:15;1.80;1.80;0.80
51320;PMS5003;38732;49.556;6.286;2022-07-10T14:27:42;2.80;2.80;1.80
51320;PMS5003;38732;49.556;6.286;2022-07-10T14:30:09;1.00;1.00;0.80
51320;PMS5003;38732;49.556;6.286;2022-07-10T14:32:36;1.80;1.80;0.80
51320;PMS5003;38732;49.556;6.286;2022-07-10T14:35:03;3.20;2.00;1.00
51320;PMS5003;38732;49.556;6.286;2022-07-10T14:37:29;2.60;1.60;1.20
51320;PMS5003;38732;49.556;6.286;2022-07-10T14:39:56;1.40;1.40;1.00
51320;PMS5003;38732;49.556;6.286;2022-07-10T14:42:23;3.20;1.60;1.00
51320;PMS5003;38732;49.556;6.286;2022-07-10T14:44:50;1.00;1.00;0.80
51320;PMS5003;38732;49.556;6.286;2022-07-10T14:47:16;0.40;0.40;0.40
51320;PMS5003;38732;49.556;6.286;2022-07-10T14:49:43;2.60;2.60;1.80
51320;PMS5003;38732;49.556;6.286;2022-07-10T14:52:10;0.80;0.80;0.40
51320;PMS5003;38732;49.556;6.286;2022-07-10T14:54:37;1.00;1.00;0.00
51320;PMS5003;38732;49.556;6.286;2022-07-10T14:57:04;0.80;0.80;0.80
51320;PMS5003;38732;49.556;6.286;2022-07-10T14:59:31;1.00;1.00;0.80
51320;PMS5003;38732;49.556;6.286;2022-07-10T15:01:58;2.20;1.40;1.00
51320;PMS5003;38732;49.556;6.286;2022-07-10T15:04:25;0.80;0.80;0.00
51320;PMS5003;38732;49.556;6.286;2022-07-10T15:06:51;0.00;0.00;0.00
51320;PMS5003;38732;49.556;6.286;2022-07-10T15:09:18;1.00;1.00;0.40
51320;PMS5003;38732;49.556;6.286;2022-07-10T15:11:45;0.80;0.80;0.80
51320;PMS5003;38732;49.556;6.286;2022-07-10T15:14:12;0.40;0.40;0.20
51320;PMS5003;38732;49.556;6.286;2022-07-10T15:16:38;0.40;0.40;0.20
51320;PMS5003;38732;49.556;6.286;2022-07-10T15:19:06;3.40;3.20;2.80
51320;PMS5003;38732;49.556;6.286;2022-07-10T15:21:36;0.80;0.80;0.40